Time;durP1;ratioP1;P1;durP2;ratioP2;P2;SDS_P1;SDS_P2;PMS_P1;PMS_P2;Temp;Humidity;BMP_temperature;BMP_pressure;BME280_temperature;BME280_humidity;BME280_pressure;Samples;Min_cycle;Max_cycle;Signal;HPM_P1;HPM_P2
2022/02/04 00:08:18;;;;;;;9.23;1.05;;;17.90;18.30;;;;;;5069000;28;20080;-62
2022/02/04 00:22:07;;;;;;;12.13;1.20;;;17.70;18.60;;;;;;5069741;28;20076;-65
2022/02/04 00:24:32;;;;;;;10.43;1.40;;;17.60;18.60;;;;;;5073426;28;20080;-65
2022/02/04 00:27:06;;;;;;;13.93;1.00;;;17.50;18.40;;;;;;5054816;28;20535;-65
2022/02/04 00:29:44;;;;;;;15.10;1.15;;;17.50;18.60;;;;;;5073514;28;20081;-67
2022/02/04 00:32:11;;;;;;;18.08;1.27;;;17.40;18.40;;;;;;5071591;28;20068;-67
2022/02/04 00:34:45;;;;;;;14.63;1.52;;;17.30;18.60;;;;;;5055282;28;20065;-66
2022/02/04 00:39:53;;;;;;;14.57;1.33;;;17.30;18.80;;;;;;5073084;28;20138;-64
2022/02/04 00:42:19;;;;;;;5.45;1.02;;;17.30;18.80;;;;;;5071812;28;20550;-67
2022/02/04 00:44:47;;;;;;;;;;;17.40;18.70;;;;;;5072126;28;20074;-64
2022/02/04 00:47:21;;;;;;;14.18;1.65;;;17.40;18.70;;;;;;5071367;28;19957;-66
2022/02/04 00:50:02;;;;;;;12.43;1.38;;;17.30;18.80;;;;;;5072934;28;20096;-65
2022/02/04 00:52:42;;;;;;;21.00;2.00;;;17.20;18.90;;;;;;5056897;28;20438;-68
2022/02/04 00:55:21;;;;;;;13.38;1.40;;;17.10;19.10;;;;;;5073268;28;20115;-67
2022/02/04 01:06:22;;;;;;;18.75;2.50;;;17.00;19.70;;;;;;5073281;28;20072;-67
2022/02/04 01:28:07;;;;;;;20.30;2.22;;;15.60;21.00;;;;;;5072423;28;20130;-67
2022/02/04 01:30:35;;;;;;;;;;;15.50;21.00;;;;;;5071360;28;20100;-66
2022/02/04 01:33:03;;;;;;;;;;;15.40;21.00;;;;;;5071066;28;19972;-65
2022/02/04 01:35:30;;;;;;;19.92;2.75;;;15.30;21.10;;;;;;5070486;28;20399;-63
2022/02/04 01:37:56;;;;;;;;;;;15.20;21.20;;;;;;5070293;28;20088;-67
2022/02/04 01:40:22;;;;;;;19.58;2.60;;;15.20;21.60;;;;;;5070444;28;19973;-66
2022/02/04 01:42:48;;;;;;;;;;;15.10;21.70;;;;;;5071016;28;20099;-67
2022/02/04 01:45:15;;;;;;;19.33;2.42;;;15.10;21.90;;;;;;5072203;28;19965;-65
2022/02/04 01:47:41;;;;;;;;;;;15.00;21.80;;;;;;5069803;28;20548;-67
2022/02/04 01:50:09;;;;;;;30.50;3.78;;;14.90;21.70;;;;;;5071369;28;19972;-65
2022/02/04 01:52:35;;;;;;;23.00;3.97;;;14.90;22.20;;;;;;5070443;28;20085;-67
2022/02/04 01:55:01;;;;;;;;;;;14.80;22.30;;;;;;5072272;28;20084;-65
2022/02/04 01:57:27;;;;;;;46.75;5.45;;;14.80;22.50;;;;;;5070744;28;19957;-65
2022/02/04 01:59:53;;;;;;;;;;;14.70;22.80;;;;;;5071661;28;20088;-67
2022/02/04 02:02:20;;;;;;;35.10;5.25;;;14.60;22.90;;;;;;5071608;28;19956;-65
2022/02/04 02:04:47;;;;;;;33.17;4.20;;;14.60;23.00;;;;;;5071141;28;20111;-65
2022/02/04 02:07:18;;;;;;;23.58;3.47;;;14.50;22.80;;;;;;5070327;28;20084;-67
2022/02/04 02:12:18;;;;;;;38.47;4.95;;;14.40;23.00;;;;;;5070551;28;20076;-68
2022/02/04 02:14:46;;;;;;;30.13;5.38;;;14.40;22.70;;;;;;5066559;28;20069;-65
2022/02/04 02:33:51;;;;;;;47.47;7.03;;;14.00;24.60;;;;;;5053625;28;20123;-65
2022/02/04 02:58:18;;;;;;;54.25;7.90;;;13.00;25.90;;;;;;5008307;28;20173;-67
2022/02/04 03:03:20;;;;;;;49.90;14.15;;;12.90;26.00;;;;;;5006665;28;20094;-67
2022/02/04 03:05:46;;;;;;;60.20;11.45;;;12.70;26.00;;;;;;5006999;28;20592;-68
2022/02/04 03:08:13;;;;;;;51.60;9.10;;;12.50;26.00;;;;;;4988478;28;20086;-69
2022/02/04 03:10:39;;;;;;;58.75;8.75;;;12.60;26.30;;;;;;4973638;28;20103;-69
2022/02/04 03:13:06;;;;;;;;;;;12.60;26.70;;;;;;5007745;28;20624;-65
2022/02/04 03:15:35;;;;;;;43.78;7.57;;;12.60;26.90;;;;;;4990740;28;19958;-67
2022/02/04 03:18:06;;;;;;;59.88;9.40;;;12.40;26.90;;;;;;4973951;28;20118;-66
2022/02/04 03:20:43;;;;;;;63.90;9.05;;;12.40;27.30;;;;;;4975161;28;20208;-68
2022/02/04 03:23:10;;;;;;;57.42;8.70;;;12.30;27.50;;;;;;5006857;28;20125;-66
2022/02/04 03:25:40;;;;;;;64.90;10.27;;;12.30;27.30;;;;;;5015437;28;20093;-67
2022/02/04 03:28:12;;;;;;;45.80;9.23;;;12.30;27.30;;;;;;5068377;28;20551;-66
2022/02/04 03:30:40;;;;;;;65.60;11.93;;;12.30;27.50;;;;;;5051095;28;20088;-68
2022/02/04 03:33:08;;;;;;;46.17;9.80;;;12.30;28.40;;;;;;5067449;28;20207;-66
2022/02/04 03:35:34;;;;;;;54.05;10.40;;;12.10;28.00;;;;;;5066015;28;20081;-67
2022/02/04 03:38:01;;;;;;;;;;;12.00;27.90;;;;;;5067972;28;20103;-68
2022/02/04 03:40:27;;;;;;;57.30;10.85;;;12.00;27.90;;;;;;5067100;28;20106;-66
2022/02/04 03:42:54;;;;;;;55.22;11.02;;;12.00;28.80;;;;;;5067929;28;20069;-66
2022/02/04 03:45:21;;;;;;;;;;;12.00;28.40;;;;;;5067413;28;20086;-65
2022/02/04 03:47:47;;;;;;;48.73;11.10;;;11.90;28.00;;;;;;5066360;28;20047;-65
2022/02/04 03:50:14;;;;;;;53.45;9.73;;;11.70;28.20;;;;;;5050719;28;20081;-66
2022/02/04 03:52:40;;;;;;;;;;;11.80;28.20;;;;;;5066106;28;20096;-64
2022/02/04 03:55:09;;;;;;;72.65;12.05;;;11.70;28.20;;;;;;5067012;28;19956;-64
2022/02/04 03:57:35;;;;;;;74.68;12.57;;;11.70;28.50;;;;;;5068371;28;20085;-66
2022/02/04 04:00:05;;;;;;;61.30;11.88;;;11.70;28.40;;;;;;5070936;28;20536;-68
2022/02/04 04:02:31;;;;;;;56.05;11.10;;;11.60;28.40;;;;;;5070988;28;20231;-68
2022/02/04 04:04:57;;;;;;;;;;;11.60;28.60;;;;;;5071591;28;20130;-67
2022/02/04 04:07:24;;;;;;;50.00;11.68;;;11.50;28.50;;;;;;5070702;28;20016;-63
2022/02/04 04:09:56;;;;;;;50.67;10.65;;;11.50;28.90;;;;;;5071804;28;20093;-65
2022/02/04 04:12:24;;;;;;;74.55;11.85;;;11.50;28.90;;;;;;5070592;28;20092;-65
2022/02/04 04:14:54;;;;;;;67.95;13.40;;;11.50;30.00;;;;;;5069864;28;20165;-65
2022/02/04 04:17:20;;;;;;;65.40;12.25;;;11.50;30.80;;;;;;5070644;28;20155;-69
2022/02/04 04:19:47;;;;;;;52.30;12.75;;;11.50;30.60;;;;;;5071029;28;20083;-68
2022/02/04 04:22:13;;;;;;;;;;;11.40;30.30;;;;;;5068528;28;20075;-65
2022/02/04 04:24:40;;;;;;;73.45;12.48;;;11.40;30.40;;;;;;5054139;28;20048;-68
2022/02/04 04:27:06;;;;;;;79.28;12.77;;;11.40;29.90;;;;;;5070418;28;20073;-68
2022/02/04 04:29:32;;;;;;;;;;;11.30;29.80;;;;;;5072247;28;20095;-70
2022/02/04 04:31:59;;;;;;;60.85;13.63;;;11.20;29.50;;;;;;5070708;28;19961;-66
2022/02/04 04:34:25;;;;;;;;;;;11.20;29.60;;;;;;5072003;28;20077;-67
2022/02/04 04:36:51;;;;;;;75.65;14.57;;;11.10;29.70;;;;;;5070401;28;20311;-66
2022/02/04 04:39:33;;;;;;;70.85;14.48;;;11.10;29.90;;;;;;5070638;28;20155;-69
2022/02/04 04:42:14;;;;;;;71.20;14.02;;;11.10;30.30;;;;;;5071977;28;20069;-66
2022/02/04 05:28:54;;;;;;;;;;;10.60;31.00;;;;;;5072380;28;20477;-64
2022/02/04 05:31:21;;;;;;;110.78;16.80;;;10.60;32.40;;;;;;5071994;28;19961;-67
2022/02/04 05:33:49;;;;;;;55.85;14.75;;;10.50;32.70;;;;;;5071589;28;20061;-65
2022/02/04 05:36:16;;;;;;;63.25;14.60;;;10.50;32.70;;;;;;5071544;28;20106;-64
2022/02/04 05:38:43;;;;;;;77.55;15.07;;;10.40;32.10;;;;;;5067979;28;20076;-64
2022/02/04 05:41:11;;;;;;;;;;;10.40;32.50;;;;;;5068898;28;20091;-65
2022/02/04 05:43:41;;;;;;;68.47;15.52;;;10.30;33.70;;;;;;5070941;28;19957;-64
2022/02/04 05:46:13;;;;;;;63.50;15.32;;;10.30;33.90;;;;;;5053239;28;20163;-66
2022/02/04 05:48:44;;;;;;;67.32;15.65;;;10.30;34.30;;;;;;5068542;28;20076;-64
2022/02/04 05:51:35;;;;;;;67.80;14.75;;;10.20;33.50;;;;;;5069985;28;20120;-65
2022/02/04 05:54:25;;;;;;;75.88;16.70;;;10.20;33.00;;;;;;5069595;28;20077;-65
2022/02/04 06:07:32;;;;;;;67.57;13.85;;;10.10;33.40;;;;;;5029184;28;20103;-63
2022/02/04 06:10:17;;;;;;;;;;;10.10;34.20;;;;;;4997855;28;20101;-66
2022/02/04 06:23:11;;;;;;;81.85;15.25;;;9.90;33.80;;;;;;5027974;28;20177;-65
2022/02/04 06:25:39;;;;;;;61.10;13.77;;;9.90;35.10;;;;;;5028715;28;20082;-67
2022/02/04 06:28:06;;;;;;;60.53;13.95;;;9.90;35.10;;;;;;5010534;28;20541;-65
2022/02/04 06:30:33;;;;;;;60.33;13.95;;;9.80;34.80;;;;;;5012266;28;20479;-65
2022/02/04 06:33:00;;;;;;;59.30;13.02;;;9.80;34.70;;;;;;5010846;28;20070;-65
2022/02/04 06:35:28;;;;;;;46.60;11.18;;;9.80;34.00;;;;;;5010065;28;20148;-65
2022/02/04 06:37:55;;;;;;;55.67;12.93;;;9.80;33.70;;;;;;5011072;28;20117;-66
2022/02/04 06:40:21;;;;;;;68.40;13.00;;;9.70;33.50;;;;;;4999440;28;20140;-65
2022/02/04 06:42:47;;;;;;;;;;;9.70;34.00;;;;;;5068032;28;20104;-61
2022/02/04 06:45:14;;;;;;;74.10;13.82;;;9.70;34.60;;;;;;5068116;28;20013;-66
2022/02/04 06:47:41;;;;;;;56.13;12.23;;;9.70;34.40;;;;;;5068648;28;20069;-63
2022/02/04 06:50:08;;;;;;;42.47;12.48;;;9.60;34.50;;;;;;5068892;28;20077;-66
2022/02/04 06:52:34;;;;;;;52.95;12.23;;;9.60;34.50;;;;;;5069636;28;20061;-64
2022/02/04 06:55:00;;;;;;;;;;;9.40;34.60;;;;;;5070285;28;20083;-67
2022/02/04 06:57:26;;;;;;;54.15;12.43;;;9.50;35.70;;;;;;5070421;28;19956;-66
2022/02/04 06:59:53;;;;;;;;;;;9.50;35.50;;;;;;5070922;28;20135;-65
2022/02/04 07:02:22;;;;;;;61.75;12.90;;;9.40;35.70;;;;;;5068785;28;19964;-66
2022/02/04 07:04:49;;;;;;;57.22;13.20;;;9.40;35.80;;;;;;5067565;28;20469;-64
2022/02/04 07:07:16;;;;;;;;;;;9.30;36.20;;;;;;5051045;28;20081;-66
2022/02/04 07:09:47;;;;;;;;;;;9.30;37.00;;;;;;5068847;28;20013;-64
2022/02/04 07:12:26;;;;;;;50.13;10.98;;;9.20;36.90;;;;;;5069532;28;20019;-67
2022/02/04 07:19:53;;;;;;;62.00;12.10;;;9.20;36.30;;;;;;5069661;28;20077;-66
2022/02/04 07:22:22;;;;;;;58.08;11.43;;;9.10;36.80;;;;;;5051880;28;20080;-65
2022/02/04 07:24:53;;;;;;;43.47;10.80;;;9.00;36.30;;;;;;5066760;28;20168;-64
2022/02/04 07:27:19;;;;;;;46.50;9.65;;;9.00;36.40;;;;;;5068578;28;20073;-66
2022/02/04 07:29:48;;;;;;;44.53;8.57;;;9.10;35.90;;;;;;5067995;28;20565;-66
2022/02/04 07:32:36;;;;;;;39.92;7.32;;;9.10;36.40;;;;;;5072021;28;20126;-65
2022/02/04 07:35:34;;;;;;;37.63;7.85;;;9.20;36.30;;;;;;5075416;28;20077;-64
2022/02/04 07:43:17;;;;;;;28.75;3.28;;;9.20;34.10;;;;;;5075791;28;20069;-65
2022/02/04 07:45:44;;;;;;;;;;;9.20;33.70;;;;;;5075222;28;20477;-65
2022/02/04 07:48:10;;;;;;;22.40;3.92;;;9.20;33.50;;;;;;5074442;28;20425;-66
2022/02/04 07:50:37;;;;;;;27.25;4.30;;;9.20;33.90;;;;;;5075352;28;20432;-63
2022/02/04 07:53:03;;;;;;;;;;;9.20;33.80;;;;;;5074335;28;20081;-64
2022/02/04 07:55:31;;;;;;;26.40;4.07;;;9.30;34.50;;;;;;5074358;28;19957;-64
2022/02/04 07:57:58;;;;;;;20.98;2.42;;;9.30;35.00;;;;;;5074746;28;20078;-67
2022/02/04 08:00:24;;;;;;;20.98;3.55;;;9.30;34.80;;;;;;5076206;28;20084;-67
2022/02/04 08:02:52;;;;;;;;;;;9.30;35.70;;;;;;5074843;28;20527;-67
2022/02/04 08:05:22;;;;;;;18.70;2.75;;;9.20;34.80;;;;;;5073081;28;20042;-64
2022/02/04 08:07:58;;;;;;;23.33;3.00;;;9.10;34.50;;;;;;5075720;28;20073;-65
2022/02/04 08:10:33;;;;;;;23.60;3.20;;;9.10;35.60;;;;;;5074417;28;20159;-66
2022/02/04 08:16:22;;;;;;;13.35;3.35;;;9.00;35.80;;;;;;5054286;28;20138;-66
2022/02/04 08:21:50;;;;;;;15.95;3.00;;;8.90;36.20;;;;;;5075767;28;20079;-64
2022/02/04 08:32:25;;;;;;;25.95;4.30;;;8.70;36.30;;;;;;5040779;28;20077;-65
2022/02/04 08:37:52;;;;;;;26.30;4.28;;;8.70;37.20;;;;;;5075329;28;20100;-65
2022/02/04 08:56:23;;;;;;;45.83;8.48;;;8.60;31.60;;;;;;5072070;28;20430;-64
2022/02/04 08:58:55;;;;;;;35.20;9.55;;;8.60;32.30;;;;;;5071831;28;20084;-66
2022/02/04 09:01:31;;;;;;;42.35;11.73;;;8.60;32.80;;;;;;5055198;28;20495;-67
2022/02/04 09:04:12;;;;;;;99.78;28.65;;;8.70;32.80;;;;;;5070459;28;20084;-66
2022/02/04 09:06:43;;;;;;;101.90;28.42;;;8.60;32.40;;;;;;5070097;28;20168;-61
2022/02/04 09:09:25;;;;;;;103.45;30.23;;;8.50;32.50;;;;;;5071156;28;20103;-65
2022/02/04 09:12:01;;;;;;;108.15;31.30;;;8.50;32.40;;;;;;5054559;28;20481;-67
2022/02/04 09:17:26;;;;;;;95.85;28.48;;;8.50;32.50;;;;;;5069401;28;20128;-68
2022/02/04 09:24:49;;;;;;;97.60;27.35;;;8.40;32.60;;;;;;5071038;28;20076;-65
2022/02/04 09:27:16;;;;;;;99.15;27.55;;;8.40;32.60;;;;;;5070857;28;20080;-65
2022/02/04 09:29:42;;;;;;;104.57;26.65;;;8.40;32.70;;;;;;5068886;28;20092;-64
2022/02/04 09:32:09;;;;;;;82.38;23.83;;;8.40;32.40;;;;;;5070599;28;20084;-65
2022/02/04 09:34:35;;;;;;;;;;;8.40;32.20;;;;;;5069088;28;20065;-65
2022/02/04 09:37:02;;;;;;;92.47;22.75;;;8.40;31.60;;;;;;5069537;28;19964;-64
2022/02/04 09:39:28;;;;;;;100.75;23.67;;;8.50;32.20;;;;;;5068647;28;20073;-65
2022/02/04 09:41:54;;;;;;;;;;;8.50;32.90;;;;;;5070822;28;20076;-65
2022/02/04 09:44:20;;;;;;;78.15;21.08;;;8.50;33.60;;;;;;5068473;28;19996;-64
2022/02/04 09:46:47;;;;;;;;;;;8.30;33.40;;;;;;5070217;28;20420;-65
2022/02/04 09:49:29;;;;;;;91.03;22.55;;;8.30;33.40;;;;;;5052188;28;20050;-63
2022/02/04 10:08:44;;;;;;;69.85;20.83;;;8.00;33.50;;;;;;5027980;28;20773;-64
2022/02/04 10:19:49;;;;;;;58.58;17.52;;;8.10;29.90;;;;;;5069178;28;20073;-66
2022/02/04 10:22:24;;;;;;;60.90;17.42;;;8.20;29.80;;;;;;5069270;28;20124;-63
2022/02/04 10:25:03;;;;;;;58.33;16.67;;;8.20;29.70;;;;;;5069160;28;20072;-64
2022/02/04 10:27:35;;;;;;;54.83;15.65;;;8.20;29.70;;;;;;5068961;28;20072;-65
2022/02/04 10:30:10;;;;;;;57.38;15.90;;;8.30;30.40;;;;;;5052407;28;20103;-64
2022/02/04 10:32:40;;;;;;;46.22;14.30;;;8.30;31.20;;;;;;5067763;28;20073;-64
2022/02/04 10:35:30;;;;;;;52.67;14.25;;;8.20;29.90;;;;;;5067523;28;20103;-64
2022/02/04 10:38:22;;;;;;;37.70;11.25;;;8.20;29.70;;;;;;5068581;28;20146;-65
2022/02/04 10:49:09;;;;;;;39.92;11.32;;;8.10;29.40;;;;;;5069335;28;20155;-64
2022/02/04 11:00:18;;;;;;;42.83;11.98;;;7.90;31.20;;;;;;5068783;28;20065;-64
2022/02/04 11:02:36;;;;;;;59.67;12.77;;;7.80;31.10;;;;;;5065179;28;20180;-65
2022/02/04 11:43:56;;;;;;;16.80;3.53;;;7.70;35.20;;;;;;5069366;28;20442;-64
2022/02/04 11:52:29;;;;;;;17.85;4.07;;;7.40;35.40;;;;;;5069296;28;20202;-65
2022/02/04 11:55:09;;;;;;;15.85;3.28;;;7.40;35.80;;;;;;5066896;28;20457;-62
2022/02/04 11:57:39;;;;;;;19.45;3.38;;;7.50;36.00;;;;;;5068811;28;20076;-65
2022/02/04 12:00:18;;;;;;;18.73;3.42;;;7.30;36.60;;;;;;5050158;28;20095;-68
2022/02/04 12:02:46;;;;;;;16.88;3.00;;;7.40;37.60;;;;;;5068313;28;20137;-66
2022/02/04 12:05:19;;;;;;;16.42;2.78;;;7.50;38.30;;;;;;5067780;28;20073;-66
2022/02/04 12:08:08;;;;;;;18.50;2.67;;;7.40;38.30;;;;;;5068796;28;21389;-67
2022/02/04 12:10:42;;;;;;;19.15;2.78;;;7.50;39.10;;;;;;5066406;28;20097;-64
2022/02/04 12:13:09;;;;;;;23.88;4.15;;;7.40;39.80;;;;;;5051109;28;20188;-66
2022/02/04 12:15:55;;;;;;;15.10;3.17;;;7.30;39.50;;;;;;5069138;28;20532;-65
2022/02/04 12:18:24;;;;;;;19.05;3.10;;;7.30;39.30;;;;;;5062055;28;20139;-65
2022/02/04 12:20:53;;;;;;;16.58;3.33;;;7.30;39.80;;;;;;5071839;28;20069;-67
2022/02/04 12:24:01;;;;;;;20.50;3.97;;;7.30;39.50;;;;;;5071528;28;20164;-66
2022/02/04 12:26:33;;;;;;;28.50;4.32;;;7.20;39.80;;;;;;5068383;28;20084;-64
2022/02/04 12:29:06;;;;;;;21.52;4.60;;;7.20;39.50;;;;;;5071442;28;20073;-64
2022/02/04 12:31:36;;;;;;;17.08;4.90;;;7.00;39.40;;;;;;5055853;28;20176;-64
2022/02/04 12:34:03;;;;;;;32.72;5.78;;;7.00;39.90;;;;;;5072761;28;20080;-63
2022/02/04 12:36:42;;;;;;;18.67;5.65;;;7.10;40.20;;;;;;5071030;28;20072;-65
2022/02/04 12:39:17;;;;;;;25.65;5.97;;;7.00;39.90;;;;;;5054005;28;20156;-64
2022/02/04 12:41:52;;;;;;;38.90;6.88;;;7.00;40.40;;;;;;5070765;28;20545;-64
2022/02/04 12:44:21;;;;;;;29.98;6.15;;;7.00;40.40;;;;;;5053249;28;20079;-66
2022/02/04 12:46:58;;;;;;;30.33;6.22;;;7.00;41.30;;;;;;5070726;28;20165;-64
2022/02/04 12:49:28;;;;;;;26.38;6.25;;;7.00;41.90;;;;;;5071082;28;20180;-64
2022/02/04 12:54:58;;;;;;;21.60;5.55;;;6.80;41.70;;;;;;5072169;28;20119;-63
2022/02/04 12:57:31;;;;;;;25.60;5.93;;;6.80;42.40;;;;;;5070587;28;20594;-63
2022/02/04 13:00:20;;;;;;;23.83;5.60;;;6.70;43.20;;;;;;5070735;28;20089;-64
2022/02/04 13:03:07;;;;;;;29.48;6.40;;;6.70;42.30;;;;;;5066956;28;20069;-64
2022/02/04 13:11:08;;;;;;;24.27;6.35;;;6.40;42.70;;;;;;5071390;28;20469;-64
2022/02/04 13:13:45;;;;;;;25.77;6.13;;;6.40;42.80;;;;;;5070405;28;20122;-65
2022/02/04 13:16:19;;;;;;;23.23;5.88;;;6.50;43.40;;;;;;5070101;28;20430;-64
2022/02/04 13:18:45;;;;;;;19.13;5.32;;;6.50;43.30;;;;;;5071392;28;20121;-64
2022/02/04 13:21:14;;;;;;;26.00;6.00;;;6.50;43.20;;;;;;5070661;28;20088;-66
2022/02/04 13:23:41;;;;;;;18.88;5.15;;;6.50;43.70;;;;;;5070347;28;20185;-64
2022/02/04 13:26:07;;;;;;;30.73;6.00;;;6.50;44.30;;;;;;5070038;28;20076;-66
2022/02/04 13:28:36;;;;;;;;;;;6.50;44.80;;;;;;5071668;28;20158;-64
2022/02/04 13:31:12;;;;;;;28.15;6.05;;;6.50;45.00;;;;;;5071318;28;19983;-64
2022/02/04 13:33:38;;;;;;;27.70;5.68;;;6.40;45.60;;;;;;5053769;28;20073;-64
2022/02/04 13:36:29;;;;;;;;;;;6.30;46.30;;;;;;5070493;28;20073;-63
2022/02/04 13:41:55;;;;;;;22.10;5.50;;;6.20;46.80;;;;;;5071436;28;20092;-66
2022/02/04 13:44:45;;;;;;;22.23;5.50;;;6.10;46.60;;;;;;5056701;28;20092;-67
2022/02/04 13:53:05;;;;;;;22.95;5.72;;;6.00;47.60;;;;;;5009129;28;20614;-64
2022/02/04 13:58:33;;;;;;;28.92;5.93;;;6.10;48.00;;;;;;4991543;28;20105;-64
2022/02/04 14:03:32;;;;;;;33.55;6.20;;;6.00;47.90;;;;;;5008350;28;20603;-64
2022/02/04 14:06:03;;;;;;;32.78;5.50;;;6.00;48.00;;;;;;5008503;28;20083;-63
2022/02/04 14:09:05;;;;;;;28.55;5.28;;;6.00;48.30;;;;;;4991392;28;20858;-64
2022/02/04 14:11:33;;;;;;;28.10;6.10;;;6.00;48.30;;;;;;5005457;28;20110;-64
2022/02/04 14:14:03;;;;;;;34.10;6.30;;;5.90;48.30;;;;;;4992218;28;20073;-66
2022/02/04 14:16:29;;;;;;;26.85;5.93;;;5.80;48.20;;;;;;5007941;28;20165;-65
2022/02/04 14:18:55;;;;;;;;;;;5.80;48.50;;;;;;4990325;28;20483;-64
2022/02/04 14:21:22;;;;;;;30.70;6.05;;;5.80;48.70;;;;;;4992954;28;20428;-64
2022/02/04 14:23:53;;;;;;;40.28;5.72;;;5.80;49.10;;;;;;4991541;28;20078;-64
2022/02/04 14:26:28;;;;;;;32.05;5.43;;;5.80;49.30;;;;;;4992096;28;20082;-64
2022/02/04 15:01:02;;;;;;;55.85;13.07;;;5.70;49.40;;;;;;5070154;28;20088;-67
2022/02/04 15:03:32;;;;;;;73.60;15.20;;;5.80;49.40;;;;;;5052935;28;20077;-65
2022/02/04 15:06:04;;;;;;;73.63;16.27;;;5.90;49.60;;;;;;5068390;28;20073;-66
2022/02/04 15:08:34;;;;;;;72.55;18.58;;;6.10;49.30;;;;;;5052455;28;20069;-66
2022/02/04 15:11:02;;;;;;;93.75;20.10;;;6.10;49.00;;;;;;5068176;28;20089;-63
2022/02/04 15:13:30;;;;;;;90.32;20.70;;;6.20;49.20;;;;;;5068267;28;21188;-65
2022/02/04 15:15:59;;;;;;;97.05;22.90;;;6.20;48.40;;;;;;5069634;28;20103;-66
2022/02/04 15:18:25;;;;;;;92.68;23.17;;;6.30;48.50;;;;;;5067936;28;20091;-64
2022/02/04 15:20:58;;;;;;;94.93;23.25;;;6.40;48.00;;;;;;5068309;28;20081;-64
2022/02/04 15:23:24;;;;;;;93.30;22.63;;;6.50;47.50;;;;;;5068395;28;20438;-65
2022/02/04 15:25:54;;;;;;;;;;;6.50;47.60;;;;;;5068513;28;20101;-65
2022/02/04 15:31:07;;;;;;;104.13;22.48;;;6.70;46.40;;;;;;5069578;28;20223;-65
2022/02/04 15:33:36;;;;;;;85.55;20.20;;;6.80;46.40;;;;;;5051523;28;20081;-66
2022/02/04 15:36:04;;;;;;;77.05;18.48;;;6.90;46.20;;;;;;5067910;28;20103;-67
2022/02/04 15:38:30;;;;;;;70.22;17.90;;;7.00;45.80;;;;;;5067893;28;20520;-64
2022/02/04 15:40:58;;;;;;;60.95;16.67;;;7.20;44.80;;;;;;5068036;28;20500;-66
2022/02/04 15:43:28;;;;;;;71.18;16.75;;;7.40;44.10;;;;;;5068044;28;20073;-66
2022/02/04 15:51:44;;;;;;;54.50;16.70;;;7.90;43.10;;;;;;5068506;28;20093;-65
2022/02/04 16:02:02;;;;;;;52.22;16.13;;;8.60;42.00;;;;;;5074429;28;20072;-66
2022/02/04 16:04:31;;;;;;;63.78;16.10;;;8.70;41.70;;;;;;5071728;28;20106;-65
2022/02/04 16:06:57;;;;;;;56.45;14.82;;;9.00;41.40;;;;;;5055274;28;20206;-64
2022/02/04 16:09:25;;;;;;;55.60;14.02;;;9.20;41.30;;;;;;5071413;28;20104;-65
2022/02/04 16:12:01;;;;;;;45.63;12.73;;;9.40;41.00;;;;;;5071128;28;20440;-65
2022/02/04 16:14:47;;;;;;;52.03;11.15;;;9.60;40.70;;;;;;5071702;28;20064;-62
2022/02/04 16:17:26;;;;;;;45.60;10.95;;;9.80;40.30;;;;;;5057431;28;20701;-65
2022/02/04 16:30:45;;;;;;;66.20;11.40;;;10.80;37.10;;;;;;5073116;28;20091;-65
2022/02/04 16:33:11;;;;;;;47.10;9.55;;;11.10;37.00;;;;;;5071732;28;20172;-64
2022/02/04 16:35:38;;;;;;;;;;;11.40;36.20;;;;;;5071889;28;20160;-62
2022/02/04 16:38:05;;;;;;;40.92;8.80;;;11.60;35.30;;;;;;5070731;28;20337;-66
2022/02/04 16:40:33;;;;;;;45.42;8.15;;;11.90;35.20;;;;;;5053873;28;20478;-63
2022/02/04 16:43:03;;;;;;;36.15;6.70;;;12.30;34.70;;;;;;5051571;28;20078;-63
2022/02/04 16:45:29;;;;;;;42.28;6.50;;;12.70;34.30;;;;;;5070914;28;20562;-63
2022/02/04 16:47:57;;;;;;;;;;;13.10;33.60;;;;;;5071446;28;20088;-63
2022/02/04 16:50:23;;;;;;;;;;;13.50;32.60;;;;;;5071046;28;19977;-65
2022/02/04 16:52:51;;;;;;;18.65;2.55;;;13.80;30.90;;;;;;5071061;28;19956;-64
2022/02/04 16:55:19;;;;;;;27.40;2.83;;;14.20;30.20;;;;;;5070671;28;20134;-64
2022/02/04 16:57:47;;;;;;;12.88;1.83;;;14.50;29.70;;;;;;5070768;28;20080;-66
2022/02/04 17:00:26;;;;;;;21.90;2.38;;;14.80;28.90;;;;;;5071881;28;20160;-64
2022/02/04 17:02:59;;;;;;;16.52;2.38;;;15.10;29.40;;;;;;5071731;28;20112;-65
2022/02/04 17:05:35;;;;;;;16.73;2.15;;;15.60;28.90;;;;;;5053164;28;20093;-64
2022/02/04 17:08:07;;;;;;;21.33;1.85;;;16.00;28.20;;;;;;5070767;28;20161;-65
2022/02/04 17:10:38;;;;;;;18.17;1.48;;;16.20;27.10;;;;;;5071742;28;20084;-65
2022/02/04 17:13:05;;;;;;;15.13;1.63;;;16.40;26.90;;;;;;5071848;28;20061;-64
2022/02/04 17:15:32;;;;;;;;;;;16.80;26.40;;;;;;5072049;28;20104;-65
2022/02/04 17:18:01;;;;;;;13.55;1.35;;;17.10;26.40;;;;;;5070093;28;19984;-66
2022/02/04 17:20:29;;;;;;;11.13;1.65;;;17.30;25.40;;;;;;5070542;28;20113;-67
2022/02/04 17:22:58;;;;;;;9.43;1.02;;;17.70;25.20;;;;;;5070189;28;20093;-66
2022/02/04 17:25:28;;;;;;;8.23;0.93;;;18.20;24.50;;;;;;5071450;28;20557;-67
2022/02/04 17:27:57;;;;;;;10.60;1.25;;;18.50;24.20;;;;;;5069853;28;20093;-65
2022/02/04 17:30:25;;;;;;;7.65;1.20;;;19.00;23.60;;;;;;5070148;28;20085;-66
2022/02/04 17:32:51;;;;;;;17.90;1.38;;;19.00;23.20;;;;;;5052901;28;20104;-63
2022/02/04 17:35:20;;;;;;;27.05;2.35;;;19.30;23.00;;;;;;5069996;28;20073;-64
2022/02/04 17:37:51;;;;;;;6.32;1.30;;;19.50;22.90;;;;;;5070014;28;20093;-65
2022/02/04 17:40:18;;;;;;;11.75;1.50;;;20.10;22.70;;;;;;5054167;28;20523;-66
2022/02/04 17:42:46;;;;;;;7.47;1.10;;;20.20;23.00;;;;;;5071027;28;20073;-67
2022/02/04 17:45:21;;;;;;;10.68;1.00;;;20.40;23.00;;;;;;5069819;28;20573;-65
2022/02/04 17:48:03;;;;;;;9.35;0.90;;;20.70;23.10;;;;;;5069859;28;20138;-65
2022/02/04 17:50:39;;;;;;;9.23;0.75;;;21.20;22.60;;;;;;5069756;28;20540;-66
2022/02/04 17:53:13;;;;;;;8.95;1.08;;;21.70;21.60;;;;;;5069552;28;20084;-62
2022/02/04 17:55:49;;;;;;;6.68;1.35;;;21.80;20.70;;;;;;5069744;28;20073;-65
2022/02/04 17:58:43;;;;;;;10.73;1.05;;;21.60;20.50;;;;;;5069601;28;20080;-64
2022/02/04 18:01:21;;;;;;;7.97;1.15;;;21.90;20.10;;;;;;5070372;28;20132;-64
2022/02/04 18:06:54;;;;;;;7.63;1.10;;;22.10;20.00;;;;;;5070083;28;20069;-64
2022/02/04 18:09:13;;;;;;;10.27;0.98;;;21.50;19.70;;;;;;5068246;28;20084;-66
2022/02/04 18:11:39;;;;;;;4.75;0.60;;;22.10;19.70;;;;;;5069845;28;20085;-67
2022/02/04 18:14:06;;;;;;;8.20;1.17;;;23.00;18.90;;;;;;5052075;28;20534;-65
2022/02/04 18:16:32;;;;;;;12.20;1.10;;;22.80;18.50;;;;;;5034611;28;20112;-63
2022/02/04 18:18:59;;;;;;;11.95;1.55;;;22.90;18.20;;;;;;5052109;28;20100;-64
2022/02/04 18:21:25;;;;;;;13.18;2.95;;;23.60;18.40;;;;;;5069278;28;20599;-64
2022/02/04 18:23:51;;;;;;;10.23;1.20;;;24.40;17.90;;;;;;5068883;28;20081;-65
2022/02/04 18:26:18;;;;;;;13.02;1.40;;;24.70;17.80;;;;;;5070309;28;20160;-65
2022/02/04 18:28:44;;;;;;;4.68;0.63;;;24.50;18.00;;;;;;5069036;28;20072;-65
2022/02/04 18:31:11;;;;;;;11.52;3.50;;;24.10;18.10;;;;;;5068869;28;20118;-67
2022/02/04 18:33:37;;;;;;;8.77;2.85;;;24.40;18.20;;;;;;5071022;28;20076;-66
2022/02/04 18:36:04;;;;;;;7.18;0.90;;;24.90;17.70;;;;;;5068875;28;20069;-67
2022/02/04 18:38:36;;;;;;;8.75;1.13;;;25.70;16.80;;;;;;5068783;28;20527;-65
2022/02/04 18:54:28;;;;;;;2.10;0.57;;;25.10;16.20;;;;;;5069493;28;20155;-65
2022/02/04 18:59:41;;;;;;;6.90;1.13;;;25.70;15.20;;;;;;5068875;28;20084;-68
2022/02/04 19:02:07;;;;;;;9.25;1.00;;;26.50;15.00;;;;;;5070032;28;20075;-65
2022/02/04 19:04:40;;;;;;;3.80;1.35;;;28.00;14.70;;;;;;5068853;28;21042;-67
2022/02/04 19:07:13;;;;;;;4.53;1.05;;;28.40;14.50;;;;;;5067778;28;20088;-66
2022/02/04 19:09:42;;;;;;;10.55;1.33;;;27.40;14.70;;;;;;5068242;28;20139;-64
2022/02/04 19:12:14;;;;;;;5.78;1.20;;;26.40;15.60;;;;;;5068539;28;20795;-66
2022/02/04 19:14:51;;;;;;;7.63;1.20;;;24.80;16.00;;;;;;5068332;28;20105;-66
2022/02/04 19:17:35;;;;;;;6.20;1.52;;;23.80;17.00;;;;;;5068109;28;20482;-64
2022/02/04 19:20:10;;;;;;;3.88;1.23;;;24.10;17.20;;;;;;5069412;28;20214;-64
2022/02/04 19:22:40;;;;;;;6.43;1.13;;;24.20;17.30;;;;;;5069287;28;20142;-65
2022/02/04 19:25:11;;;;;;;13.48;1.40;;;23.80;17.20;;;;;;5069619;28;20590;-67
2022/02/04 19:27:39;;;;;;;8.60;1.20;;;23.70;17.30;;;;;;5067980;28;20115;-67
2022/02/04 19:30:10;;;;;;;11.73;1.83;;;22.90;17.50;;;;;;5069349;28;20095;-67
2022/02/04 19:32:36;;;;;;;7.38;1.45;;;22.40;18.30;;;;;;5069213;28;20531;-65
2022/02/04 19:35:03;;;;;;;12.65;1.63;;;21.60;18.80;;;;;;5067993;28;20130;-64
2022/02/04 19:37:30;;;;;;;14.60;2.55;;;21.10;19.30;;;;;;5068247;28;20159;-65
2022/02/04 19:39:56;;;;;;;14.48;4.47;;;21.40;19.90;;;;;;5068029;28;20088;-64
2022/02/04 19:42:31;;;;;;;6.53;1.42;;;21.50;18.10;;;;;;5067960;28;20531;-64
2022/02/04 19:45:06;;;;;;;10.15;1.38;;;21.50;17.10;;;;;;5068127;28;20462;-65